createdAt,value
2023-07-21T00:00:58.430Z,100.00
2023-07-21T00:04:00.257Z,100.00
2023-07-21T00:07:01.946Z,100.00
2023-07-21T00:10:10.225Z,100.00
2023-07-21T00:13:12.579Z,100.00
2023-07-21T00:16:14.391Z,100.00
2023-07-21T00:19:16.082Z,100.00
2023-07-21T00:22:18.106Z,100.00
2023-07-21T00:25:20.047Z,100.00
2023-07-21T00:28:21.850Z,100.00
2023-07-21T00:31:23.587Z,100.00
2023-07-21T00:34:26.213Z,100.00
2023-07-21T00:37:27.850Z,100.00
2023-07-21T00:40:31.553Z,100.00
2023-07-21T00:43:33.226Z,100.00
2023-07-21T00:46:35.763Z,100.00
2023-07-21T00:49:38.336Z,100.00
2023-07-21T00:52:40.459Z,100.00
2023-07-21T00:55:43.393Z,100.00
2023-07-21T00:58:45.201Z,100.00
2023-07-21T01:01:46.907Z,100.00
2023-07-21T01:04:48.718Z,100.00
2023-07-21T01:07:52.056Z,100.00
2023-07-21T01:10:56.830Z,100.00
2023-07-21T01:14:03.940Z,100.00
2023-07-21T01:17:08.818Z,100.00
2023-07-21T01:20:16.251Z,100.00
2023-07-21T01:23:20.702Z,100.00
2023-07-21T01:26:23.668Z,100.00
2023-07-21T01:29:26.369Z,100.00
2023-07-21T01:32:28.468Z,100.00
2023-07-21T01:35:33.987Z,100.00
2023-07-21T01:38:36.216Z,100.00
2023-07-21T01:41:38.986Z,100.00
2023-07-21T01:44:40.965Z,100.00
2023-07-21T01:47:47.148Z,100.00
2023-07-21T01:50:49.516Z,100.00
2023-07-21T01:53:57.167Z,100.00
2023-07-21T01:57:06.431Z,100.00
2023-07-21T02:00:13.931Z,100.00
2023-07-21T02:03:18.033Z,100.00
2023-07-21T02:06:19.770Z,100.00
2023-07-21T02:09:21.860Z,100.00
2023-07-21T02:12:23.520Z,100.00
2023-07-21T02:15:25.454Z,100.00
2023-07-21T02:18:27.120Z,100.00
2023-07-21T02:21:30.416Z,100.00
2023-07-21T02:24:32.164Z,100.00
2023-07-21T02:27:34.983Z,100.00
2023-07-21T02:30:36.778Z,100.00
2023-07-21T02:33:38.478Z,100.00
2023-07-21T02:36:40.163Z,100.00
2023-07-21T02:39:41.827Z,100.00
2023-07-21T02:42:44.476Z,100.00
2023-07-21T02:45:50.650Z,100.00
2023-07-21T02:48:52.409Z,100.00
2023-07-21T02:51:54.687Z,100.00
2023-07-21T02:54:56.362Z,100.00
2023-07-21T02:57:58.135Z,100.00
2023-07-21T03:01:03.621Z,100.00
2023-07-21T03:04:05.627Z,100.00
2023-07-21T03:07:07.418Z,100.00
2023-07-21T03:10:12.516Z,100.00
2023-07-21T03:13:14.306Z,100.00
2023-07-21T03:16:16.513Z,100.00
2023-07-21T03:19:18.534Z,100.00
2023-07-21T03:22:20.186Z,100.00
2023-07-21T03:25:21.876Z,100.00
2023-07-21T03:28:24.037Z,100.00
2023-07-21T03:31:25.833Z,100.00
2023-07-21T03:34:27.956Z,100.00
2023-07-21T03:37:32.104Z,100.00
2023-07-21T03:40:33.748Z,100.00
2023-07-21T03:43:36.736Z,100.00
2023-07-21T03:46:38.769Z,100.00
2023-07-21T03:49:40.458Z,100.00
2023-07-21T03:52:42.519Z,100.00
2023-07-21T03:55:44.727Z,100.00
2023-07-21T03:58:46.415Z,100.00
2023-07-21T04:01:48.239Z,100.00
2023-07-21T04:04:50.249Z,100.00
2023-07-21T04:07:52.262Z,100.00
2023-07-21T04:10:53.931Z,100.00
2023-07-21T04:13:55.664Z,100.00
2023-07-21T04:16:57.395Z,100.00
2023-07-21T04:19:59.287Z,100.00
2023-07-21T04:23:01.288Z,100.00
2023-07-21T04:26:04.503Z,100.00
2023-07-21T04:29:07.849Z,100.00
2023-07-21T04:32:11.430Z,100.00
2023-07-21T04:35:13.095Z,100.00
2023-07-21T04:38:15.549Z,100.00
2023-07-21T04:41:17.782Z,100.00
2023-07-21T04:44:19.428Z,100.00
2023-07-21T04:47:22.492Z,100.00
2023-07-21T04:50:24.272Z,100.00
2023-07-21T04:53:25.954Z,100.00
2023-07-21T04:56:46.574Z,100.00
2023-07-21T04:59:48.270Z,100.00
2023-07-21T05:02:50.491Z,100.00
2023-07-21T05:05:52.210Z,100.00
2023-07-21T05:08:53.862Z,100.00
2023-07-21T05:11:55.540Z,100.00
2023-07-21T05:14:58.996Z,100.00
2023-07-21T05:18:00.673Z,100.00
2023-07-21T05:21:02.410Z,100.00
2023-07-21T05:24:04.409Z,100.00
2023-07-21T05:27:07.149Z,100.00
2023-07-21T05:30:12.491Z,100.00
2023-07-21T05:33:14.309Z,100.00
2023-07-21T05:36:15.960Z,100.00
2023-07-21T05:39:17.784Z,100.00
2023-07-21T05:42:19.457Z,100.00
2023-07-21T05:45:24.145Z,100.00
2023-07-21T05:48:26.263Z,100.00
2023-07-21T05:51:27.949Z,100.00
2023-07-21T05:54:29.588Z,100.00
2023-07-21T05:57:31.326Z,100.00
2023-07-21T06:00:37.859Z,100.00
2023-07-21T06:03:39.668Z,100.00
2023-07-21T06:06:41.401Z,100.00
2023-07-21T06:09:43.099Z,100.00
2023-07-21T06:12:44.843Z,100.00
2023-07-21T06:15:46.518Z,100.00
2023-07-21T06:18:48.192Z,100.00
2023-07-21T06:21:50.060Z,100.00
2023-07-21T06:24:51.720Z,100.00
2023-07-21T06:27:53.455Z,100.00
2023-07-21T06:30:55.249Z,100.00
2023-07-21T06:33:56.951Z,100.00
2023-07-21T06:36:58.872Z,100.00
2023-07-21T06:40:02.913Z,100.00
2023-07-21T06:43:04.627Z,100.00
2023-07-21T06:46:07.170Z,100.00
2023-07-21T06:49:09.003Z,100.00
2023-07-21T06:52:10.666Z,100.00
2023-07-21T06:55:12.335Z,100.00
2023-07-21T06:58:14.030Z,100.00
2023-07-21T07:01:16.846Z,100.00
2023-07-21T07:04:19.004Z,100.00
2023-07-21T07:07:21.503Z,100.00
2023-07-21T07:10:23.273Z,100.00
2023-07-21T07:13:25.124Z,100.00
2023-07-21T07:16:27.172Z,100.00
2023-07-21T07:19:29.252Z,100.00
2023-07-21T07:22:31.203Z,100.00
2023-07-21T07:25:32.894Z,100.00
2023-07-21T07:28:34.628Z,100.00
2023-07-21T07:31:37.920Z,100.00
2023-07-21T07:34:39.573Z,100.00
2023-07-21T07:37:41.624Z,100.00
2023-07-21T07:40:43.832Z,100.00
2023-07-21T07:43:46.764Z,100.00
2023-07-21T07:46:48.562Z,100.00
2023-07-21T07:49:50.233Z,100.00
2023-07-21T07:52:51.927Z,100.00
2023-07-21T07:55:53.585Z,100.00
2023-07-21T07:58:56.485Z,100.00
2023-07-21T08:01:59.359Z,100.00
2023-07-21T08:05:01.180Z,91.38
2023-07-21T08:08:04.119Z,95.73
2023-07-21T08:11:07.343Z,96.51
2023-07-21T08:14:09.051Z,95.60
2023-07-21T08:17:11.317Z,91.53
2023-07-21T08:20:13.300Z,100.00
2023-07-21T08:23:27.323Z,99.40
2023-07-21T08:26:30.761Z,94.25
2023-07-21T08:29:32.437Z,88.71
2023-07-21T08:32:34.228Z,88.92
2023-07-21T08:35:35.962Z,88.37
2023-07-21T08:38:37.632Z,89.52
2023-07-21T08:41:45.903Z,90.78
2023-07-21T08:44:48.126Z,96.02
2023-07-21T08:47:49.934Z,96.69
2023-07-21T08:50:55.224Z,100.00
2023-07-21T08:53:56.916Z,100.00
2023-07-21T08:56:58.554Z,100.00
2023-07-21T09:00:00.302Z,99.86
2023-07-21T09:03:04.228Z,100.00
2023-07-21T09:06:06.181Z,99.58
2023-07-21T09:09:07.889Z,100.00
2023-07-21T09:12:10.746Z,100.00
2023-07-21T09:15:12.762Z,100.00
2023-07-21T09:18:14.442Z,100.00
2023-07-21T09:21:20.481Z,100.00
2023-07-21T09:24:22.282Z,100.00
2023-07-21T09:27:24.037Z,100.00
2023-07-21T09:30:25.938Z,100.00
2023-07-21T09:33:27.562Z,100.00
2023-07-21T09:36:29.501Z,100.00
2023-07-21T09:39:31.315Z,100.00
2023-07-21T09:42:36.192Z,100.00
2023-07-21T09:45:42.862Z,100.00
2023-07-21T09:48:46.056Z,100.00
2023-07-21T09:51:50.989Z,100.00
2023-07-21T09:55:14.839Z,100.00
2023-07-21T09:58:18.682Z,100.00
2023-07-21T10:01:21.248Z,100.00
2023-07-21T10:04:24.541Z,100.00
2023-07-21T10:07:28.204Z,100.00
2023-07-21T10:10:30.539Z,100.00
2023-07-21T10:13:36.244Z,100.00
2023-07-21T10:16:38.053Z,100.00
2023-07-21T10:19:44.150Z,100.00
2023-07-21T10:22:56.552Z,100.00
2023-07-21T10:26:01.189Z,100.00
2023-07-21T10:29:16.557Z,100.00
2023-07-21T10:32:21.072Z,100.00
2023-07-21T10:35:38.964Z,100.00
2023-07-21T10:38:41.931Z,100.00
2023-07-21T10:41:45.022Z,100.00
2023-07-21T10:44:48.852Z,100.00
2023-07-21T10:47:50.902Z,100.00
2023-07-21T10:50:55.788Z,100.00
2023-07-21T10:53:57.818Z,100.00
2023-07-21T10:57:01.240Z,100.00
2023-07-21T11:00:03.012Z,100.00
2023-07-21T11:03:05.783Z,100.00
2023-07-21T11:06:07.572Z,100.00
2023-07-21T11:09:13.519Z,100.00
2023-07-21T11:12:15.368Z,100.00
2023-07-21T11:15:20.169Z,100.00
2023-07-21T11:18:23.117Z,100.00
2023-07-21T11:21:24.985Z,100.00
2023-07-21T11:24:31.531Z,100.00
2023-07-21T11:27:34.078Z,100.00
2023-07-21T11:30:35.745Z,100.00
2023-07-21T11:33:48.902Z,100.00
2023-07-21T11:36:56.889Z,100.00
2023-07-21T11:40:02.359Z,100.00
2023-07-21T11:43:09.086Z,100.00
2023-07-21T11:46:10.866Z,100.00
2023-07-21T11:49:15.583Z,100.00
2023-07-21T11:52:28.455Z,100.00
2023-07-21T11:55:30.469Z,100.00
2023-07-21T11:58:32.101Z,100.00
2023-07-21T12:01:33.790Z,100.00
2023-07-21T12:04:37.097Z,100.00
2023-07-21T12:07:39.250Z,100.00
2023-07-21T12:10:41.215Z,100.00
2023-07-21T12:13:42.910Z,100.00
2023-07-21T12:16:46.838Z,100.00
2023-07-21T12:19:48.545Z,100.00
2023-07-21T12:22:50.216Z,100.00
2023-07-21T12:25:52.005Z,98.73
2023-07-21T12:28:53.813Z,100.00
2023-07-21T12:31:55.678Z,98.45
2023-07-21T12:34:57.511Z,98.18
2023-07-21T12:37:59.224Z,100.00
2023-07-21T12:41:03.200Z,97.19
2023-07-21T12:44:06.668Z,97.85
2023-07-21T12:47:08.373Z,89.18
2023-07-21T12:50:10.551Z,88.54
2023-07-21T12:53:12.244Z,89.76
2023-07-21T12:56:13.920Z,93.34
2023-07-21T12:59:15.647Z,94.14
2023-07-21T13:02:17.377Z,91.36
2023-07-21T13:05:19.320Z,88.69
2023-07-21T13:08:21.287Z,94.35
2023-07-21T13:11:22.957Z,97.74
2023-07-21T13:14:24.752Z,91.63
2023-07-21T13:17:27.565Z,90.21
2023-07-21T13:20:29.407Z,91.46
2023-07-21T13:23:31.257Z,87.11
2023-07-21T13:26:34.974Z,81.74
2023-07-21T13:29:36.775Z,77.64
2023-07-21T13:32:38.658Z,75.30
2023-07-21T13:35:40.762Z,77.00
2023-07-21T13:38:42.709Z,73.07
2023-07-21T13:41:45.488Z,70.23
2023-07-21T13:44:48.181Z,62.82
2023-07-21T13:47:50.492Z,52.32
2023-07-21T13:50:52.454Z,44.73
2023-07-21T13:53:54.277Z,41.24
2023-07-21T13:56:56.192Z,44.42
2023-07-21T13:59:58.291Z,46.96
2023-07-21T14:03:00.604Z,50.95
2023-07-21T14:06:05.334Z,54.69
2023-07-21T14:09:11.655Z,57.24
2023-07-21T14:12:13.546Z,58.20
2023-07-21T14:15:15.874Z,59.29
2023-07-21T14:18:19.207Z,61.07
2023-07-21T14:21:23.146Z,61.04
2023-07-21T14:24:25.315Z,61.07
2023-07-21T14:27:27.290Z,61.85
2023-07-21T14:30:31.093Z,62.83
2023-07-21T14:33:34.338Z,61.77
2023-07-21T14:36:37.300Z,61.32
2023-07-21T14:39:39.389Z,54.13
2023-07-21T14:42:42.472Z,48.58
2023-07-21T14:45:44.851Z,46.01
2023-07-21T14:48:46.944Z,45.62
2023-07-21T14:51:49.300Z,46.08
2023-07-21T14:54:51.151Z,44.22
2023-07-21T14:57:52.828Z,46.07
2023-07-21T15:00:54.808Z,50.84
2023-07-21T15:03:56.682Z,54.87
2023-07-21T15:06:58.447Z,56.11
2023-07-21T15:10:00.177Z,54.71
2023-07-21T15:13:01.868Z,56.06
2023-07-21T15:16:03.628Z,56.92
2023-07-21T15:19:05.360Z,58.10
2023-07-21T15:22:07.211Z,59.61
2023-07-21T15:25:09.290Z,62.78
2023-07-21T15:28:11.102Z,66.16
2023-07-21T15:31:12.848Z,61.80
2023-07-21T15:34:14.604Z,60.64
2023-07-21T15:37:16.284Z,66.36
2023-07-21T15:40:19.605Z,66.34
2023-07-21T15:43:21.366Z,67.28
2023-07-21T15:46:23.221Z,65.85
2023-07-21T15:49:32.098Z,65.03
2023-07-21T15:52:42.661Z,65.92
2023-07-21T15:55:44.568Z,64.62
2023-07-21T15:58:46.345Z,63.31
2023-07-21T16:01:48.223Z,61.93
2023-07-21T16:04:50.911Z,61.30
2023-07-21T16:07:53.032Z,63.72
2023-07-21T16:10:54.887Z,63.19
2023-07-21T16:13:56.747Z,64.33
2023-07-21T16:16:58.968Z,64.89
2023-07-21T16:20:02.081Z,66.62
2023-07-21T16:23:04.938Z,69.12
2023-07-21T16:26:16.968Z,73.31
2023-07-21T16:29:19.117Z,71.61
2023-07-21T16:32:21.230Z,73.95
2023-07-21T16:35:23.994Z,76.30
2023-07-21T16:38:26.043Z,79.58
2023-07-21T16:41:28.312Z,79.20
2023-07-21T16:44:34.386Z,80.18
2023-07-21T16:47:36.426Z,80.21
2023-07-21T16:50:40.536Z,80.74
2023-07-21T16:53:42.616Z,80.05
2023-07-21T16:56:44.828Z,81.24
2023-07-21T16:59:55.869Z,81.10
2023-07-21T17:02:59.068Z,82.06
2023-07-21T17:06:01.308Z,82.58
2023-07-21T17:09:04.052Z,84.47
2023-07-21T17:12:06.464Z,85.25
2023-07-21T17:15:10.338Z,85.98
2023-07-21T17:18:12.348Z,88.91
2023-07-21T17:21:14.298Z,87.43
2023-07-21T17:24:16.326Z,89.72
2023-07-21T17:27:18.479Z,90.68
2023-07-21T17:30:21.922Z,95.55
2023-07-21T17:33:23.598Z,97.15
2023-07-21T17:36:25.560Z,97.61
2023-07-21T17:39:27.400Z,96.56
2023-07-21T17:42:29.668Z,96.36
2023-07-21T17:45:31.891Z,98.20
2023-07-21T17:48:34.298Z,100.00
2023-07-21T17:51:35.981Z,100.00
2023-07-21T17:54:38.125Z,100.00
2023-07-21T17:57:43.468Z,100.00
2023-07-21T18:00:45.461Z,100.00
2023-07-21T18:03:51.023Z,100.00
2023-07-21T18:06:53.412Z,100.00
2023-07-21T18:09:55.540Z,100.00
2023-07-21T18:12:59.036Z,100.00
2023-07-21T18:16:01.292Z,100.00
2023-07-21T18:19:03.255Z,100.00
2023-07-21T18:22:05.334Z,100.00
2023-07-21T18:25:11.877Z,100.00
2023-07-21T18:28:14.222Z,100.00
2023-07-21T18:31:15.987Z,100.00
2023-07-21T18:34:17.976Z,100.00
2023-07-21T18:37:20.200Z,100.00
2023-07-21T18:40:22.529Z,100.00
2023-07-21T18:43:24.471Z,100.00
2023-07-21T18:46:26.554Z,100.00
2023-07-21T18:49:29.443Z,100.00
2023-07-21T18:52:31.830Z,100.00
2023-07-21T18:55:33.731Z,100.00
2023-07-21T18:58:35.804Z,100.00
2023-07-21T19:01:41.969Z,100.00
2023-07-21T19:04:44.785Z,100.00
2023-07-21T19:07:47.351Z,100.00
2023-07-21T19:10:49.898Z,100.00
2023-07-21T19:13:53.099Z,100.00
2023-07-21T19:16:55.089Z,100.00
2023-07-21T19:19:57.353Z,100.00
2023-07-21T19:23:00.084Z,100.00
2023-07-21T19:26:02.301Z,100.00
2023-07-21T19:29:06.934Z,100.00
2023-07-21T19:32:11.723Z,100.00
2023-07-21T19:35:13.679Z,100.00
2023-07-21T19:38:15.871Z,100.00
2023-07-21T19:41:18.937Z,100.00
2023-07-21T19:44:20.861Z,100.00
2023-07-21T19:47:22.534Z,100.00
2023-07-21T19:50:24.343Z,100.00
2023-07-21T19:53:26.297Z,100.00
2023-07-21T19:56:29.869Z,100.00
2023-07-21T19:59:31.524Z,100.00
2023-07-21T20:02:33.568Z,100.00
2023-07-21T20:05:38.444Z,100.00
2023-07-21T20:08:40.389Z,100.00
2023-07-21T20:11:42.436Z,100.00
2023-07-21T20:14:44.075Z,100.00
2023-07-21T20:17:45.892Z,100.00
2023-07-21T20:20:47.555Z,100.00
2023-07-21T20:23:49.134Z,100.00
2023-07-21T20:26:50.795Z,100.00
2023-07-21T20:29:52.513Z,100.00
2023-07-21T20:32:55.052Z,100.00
2023-07-21T20:35:56.697Z,100.00
2023-07-21T20:38:58.239Z,100.00
2023-07-21T20:42:00.142Z,100.00
2023-07-21T20:45:01.753Z,100.00
2023-07-21T20:48:03.606Z,100.00
2023-07-21T20:51:05.351Z,100.00
2023-07-21T20:54:06.945Z,100.00
2023-07-21T20:57:08.565Z,100.00
2023-07-21T21:00:23.085Z,100.00
2023-07-21T21:03:24.821Z,100.00
2023-07-21T21:06:26.608Z,100.00
2023-07-21T21:09:28.301Z,100.00
2023-07-21T21:12:29.858Z,100.00
2023-07-21T21:15:31.432Z,100.00
2023-07-21T21:18:33.110Z,100.00
2023-07-21T21:21:34.681Z,100.00
2023-07-21T21:24:36.330Z,100.00
2023-07-21T21:27:37.970Z,100.00
2023-07-21T21:30:39.564Z,100.00
2023-07-21T21:33:41.136Z,100.00
2023-07-21T21:36:42.690Z,100.00
2023-07-21T21:39:44.251Z,100.00
2023-07-21T21:42:46.643Z,100.00
2023-07-21T21:45:48.554Z,100.00
2023-07-21T21:48:50.693Z,100.00
2023-07-21T21:51:52.257Z,100.00
2023-07-21T21:54:53.921Z,100.00
2023-07-21T21:57:55.575Z,100.00
2023-07-21T22:00:57.214Z,100.00
2023-07-21T22:03:59.020Z,100.00
2023-07-21T22:07:02.322Z,100.00
2023-07-21T22:10:04.280Z,100.00
2023-07-21T22:13:05.945Z,100.00
2023-07-21T22:16:07.900Z,100.00
2023-07-21T22:19:10.044Z,100.00
2023-07-21T22:22:11.764Z,100.00
2023-07-21T22:25:13.547Z,100.00
2023-07-21T22:28:15.338Z,100.00
2023-07-21T22:31:18.915Z,100.00
2023-07-21T22:34:20.857Z,100.00
2023-07-21T22:37:22.685Z,100.00
2023-07-21T22:40:24.805Z,100.00
2023-07-21T22:43:26.720Z,100.00
2023-07-21T22:46:28.806Z,100.00
2023-07-21T22:49:31.061Z,100.00
2023-07-21T22:52:32.820Z,100.00
2023-07-21T22:55:34.778Z,100.00
2023-07-21T22:58:37.133Z,100.00
2023-07-21T23:01:39.057Z,100.00
2023-07-21T23:04:40.904Z,100.00
2023-07-21T23:07:42.824Z,100.00
2023-07-21T23:10:44.836Z,100.00
2023-07-21T23:13:46.779Z,100.00
2023-07-21T23:16:48.787Z,100.00
2023-07-21T23:19:50.591Z,100.00
2023-07-21T23:22:52.402Z,100.00
2023-07-21T23:25:57.908Z,100.00
2023-07-21T23:28:59.563Z,100.00
2023-07-21T23:32:01.203Z,100.00
2023-07-21T23:35:02.870Z,100.00
2023-07-21T23:38:04.564Z,100.00
2023-07-21T23:41:06.553Z,100.00
2023-07-21T23:44:08.835Z,100.00
2023-07-21T23:47:10.591Z,100.00
2023-07-21T23:50:12.258Z,100.00
2023-07-21T23:53:14.212Z,100.00
2023-07-21T23:56:15.883Z,100.00
2023-07-21T23:59:17.973Z,100.00
